Time;durP1;ratioP1;P1;durP2;ratioP2;P2;SDS_P1;SDS_P2;PMS_P1;PMS_P2;Temp;Humidity;BMP_temperature;BMP_pressure;BME280_temperature;BME280_humidity;BME280_pressure;Samples;Min_cycle;Max_cycle;Signal;HPM_P1;HPM_P2
2022/05/04 00:00:27;;;;;;;12.87;8.33;;;9.50;99.90;;;;;;5001497;28;20549;-45
2022/05/04 00:02:53;;;;;;;19.43;8.80;;;9.50;99.90;;;;;;5001354;28;20244;-46
2022/05/04 00:05:19;;;;;;;18.43;8.43;;;9.40;99.90;;;;;;5002897;28;20185;-45
2022/05/04 00:07:45;;;;;;;15.40;7.93;;;9.40;99.90;;;;;;5002021;28;20200;-46
2022/05/04 00:10:12;;;;;;;14.10;8.00;;;9.40;99.90;;;;;;5003231;28;20180;-46
2022/05/04 00:12:37;;;;;;;16.97;8.17;;;9.30;99.90;;;;;;5003117;28;20199;-44
2022/05/04 00:15:04;;;;;;;12.83;7.77;;;9.30;99.90;;;;;;5002167;28;20180;-45
2022/05/04 00:17:30;;;;;;;15.80;7.90;;;9.30;99.90;;;;;;5002181;28;20278;-44
2022/05/04 00:19:55;;;;;;;12.13;7.90;;;9.20;99.90;;;;;;5002892;28;20707;-45
2022/05/04 00:22:23;;;;;;;16.17;7.47;;;9.20;99.90;;;;;;5003589;28;20181;-44
2022/05/04 00:24:49;;;;;;;13.23;7.97;;;9.10;99.90;;;;;;5003257;28;20642;-45
2022/05/04 00:27:15;;;;;;;11.70;7.53;;;9.10;99.90;;;;;;5002970;28;20198;-46
2022/05/04 00:29:45;;;;;;;10.10;6.57;;;9.10;99.90;;;;;;5002323;28;20210;-45
2022/05/04 00:32:12;;;;;;;13.43;7.20;;;9.00;99.90;;;;;;5001677;28;20590;-46
2022/05/04 00:34:38;;;;;;;18.73;7.67;;;9.00;99.90;;;;;;5001008;28;20559;-44
2022/05/04 00:37:04;;;;;;;13.77;6.50;;;9.00;99.90;;;;;;5002571;28;20199;-45
2022/05/04 00:39:29;;;;;;;15.97;7.30;;;9.00;99.90;;;;;;5002327;28;20226;-44
2022/05/04 00:42:15;;;;;;;13.73;7.07;;;8.90;99.90;;;;;;5002455;28;20177;-44
2022/05/04 00:44:42;;;;;;;15.77;7.43;;;8.90;99.90;;;;;;5003195;28;20168;-45
2022/05/04 00:47:08;;;;;;;11.63;6.10;;;8.90;99.90;;;;;;5002302;28;20283;-44
2022/05/04 00:49:35;;;;;;;13.73;6.70;;;8.90;99.90;;;;;;5001432;28;20185;-46
2022/05/04 00:52:02;;;;;;;8.03;6.00;;;8.80;99.90;;;;;;5001329;28;20231;-44
2022/05/04 00:54:29;;;;;;;10.37;6.87;;;8.80;99.90;;;;;;5001349;28;20182;-45
2022/05/04 00:56:55;;;;;;;10.77;6.37;;;8.80;99.90;;;;;;5001139;28;20215;-44
2022/05/04 00:59:22;;;;;;;9.10;5.97;;;8.80;99.90;;;;;;5001194;28;20203;-44
2022/05/04 01:01:48;;;;;;;9.80;6.20;;;8.80;99.90;;;;;;5000114;28;20178;-45
2022/05/04 01:04:14;;;;;;;10.53;5.73;;;8.80;99.90;;;;;;5000522;28;20177;-44
2022/05/04 01:06:40;;;;;;;10.23;5.77;;;8.70;99.90;;;;;;5001112;28;20194;-42
2022/05/04 01:09:06;;;;;;;9.07;5.90;;;8.70;99.90;;;;;;5000740;28;20197;-44
2022/05/04 01:11:32;;;;;;;10.20;5.90;;;8.60;99.90;;;;;;5001334;28;20191;-44
2022/05/04 01:14:06;;;;;;;10.07;5.70;;;8.60;99.90;;;;;;5001803;28;20182;-45
2022/05/04 01:16:33;;;;;;;8.60;5.77;;;8.60;99.90;;;;;;5000857;28;20208;-44
2022/05/04 01:18:59;;;;;;;10.67;5.27;;;8.60;99.90;;;;;;5001527;28;20198;-44
2022/05/04 01:21:25;;;;;;;13.13;5.47;;;8.50;99.90;;;;;;4999547;28;20221;-46
2022/05/04 01:23:53;;;;;;;11.77;5.87;;;8.50;99.90;;;;;;5001016;28;20182;-46
2022/05/04 01:26:19;;;;;;;13.83;5.63;;;8.50;99.90;;;;;;5000917;28;20183;-46
2022/05/04 01:28:45;;;;;;;7.53;5.03;;;8.40;99.90;;;;;;5000209;28;20183;-45
2022/05/04 01:31:11;;;;;;;9.80;5.00;;;8.40;99.90;;;;;;5000409;28;20740;-46
2022/05/04 01:33:37;;;;;;;8.83;5.40;;;8.30;99.90;;;;;;5016620;22;20280;-43
2022/05/04 01:36:03;;;;;;;12.87;5.70;;;8.30;99.90;;;;;;5015172;28;20619;-44
2022/05/04 01:38:29;;;;;;;8.23;5.50;;;8.30;99.90;;;;;;5017957;28;20193;-43
2022/05/04 01:40:54;;;;;;;8.07;5.60;;;8.20;99.90;;;;;;5016032;28;20277;-44
2022/05/04 01:43:20;;;;;;;11.93;5.97;;;8.20;99.90;;;;;;5015326;28;20669;-45
2022/05/04 01:45:46;;;;;;;11.13;5.33;;;8.20;99.90;;;;;;5015262;28;20260;-44
2022/05/04 01:48:12;;;;;;;11.13;5.37;;;8.20;99.90;;;;;;5014639;28;20198;-45
2022/05/04 01:50:37;;;;;;;9.43;4.63;;;8.10;99.90;;;;;;5014557;28;20170;-43
2022/05/04 01:53:03;;;;;;;7.30;5.23;;;8.10;99.90;;;;;;5014461;28;20174;-44
2022/05/04 01:55:33;;;;;;;10.40;5.57;;;8.10;99.90;;;;;;5014421;28;20280;-44
2022/05/04 01:57:58;;;;;;;11.60;4.93;;;8.10;99.90;;;;;;5014312;28;20205;-43
2022/05/04 02:00:24;;;;;;;9.50;4.97;;;8.00;99.90;;;;;;5014574;28;20212;-44
2022/05/04 02:02:50;;;;;;;8.97;5.27;;;8.00;99.90;;;;;;5014593;28;20211;-45
2022/05/04 02:05:16;;;;;;;10.60;5.60;;;8.00;99.90;;;;;;5017050;28;20547;-42
2022/05/04 02:07:43;;;;;;;10.53;5.17;;;8.00;99.90;;;;;;5016201;28;20197;-41
2022/05/04 02:10:10;;;;;;;8.50;5.10;;;8.00;99.90;;;;;;5012830;28;20184;-39
2022/05/04 02:12:36;;;;;;;10.87;4.67;;;7.90;99.90;;;;;;5014136;28;20185;-40
2022/05/04 02:15:06;;;;;;;9.07;5.17;;;7.90;99.90;;;;;;5013080;28;20188;-41
2022/05/04 02:17:31;;;;;;;8.00;4.60;;;7.90;99.90;;;;;;5014031;28;20598;-41
2022/05/04 02:19:58;;;;;;;9.90;5.23;;;7.90;99.90;;;;;;5013958;28;20213;-38
2022/05/04 02:22:23;;;;;;;9.60;5.37;;;7.80;99.90;;;;;;5012726;28;20186;-39
2022/05/04 02:24:49;;;;;;;8.60;4.67;;;7.80;99.90;;;;;;5014114;28;20192;-40
2022/05/04 02:27:15;;;;;;;9.90;4.90;;;7.80;99.90;;;;;;5012509;28;20205;-41
2022/05/04 02:29:40;;;;;;;6.87;4.63;;;7.80;99.90;;;;;;5012527;28;20193;-39
2022/05/04 02:32:07;;;;;;;8.37;4.80;;;7.70;99.90;;;;;;5014029;28;20264;-39
2022/05/04 02:34:33;;;;;;;12.87;5.00;;;7.70;99.90;;;;;;5013723;28;20229;-39
2022/05/04 02:39:43;;;;;;;9.10;6.10;;;7.70;99.90;;;;;;5013659;28;20208;-41
2022/05/04 02:42:10;;;;;;;8.40;4.67;;;7.70;99.90;;;;;;5013645;28;20169;-40
2022/05/04 02:44:35;;;;;;;9.77;5.77;;;7.60;99.90;;;;;;5012400;28;20288;-41
2022/05/04 02:47:01;;;;;;;7.60;4.63;;;7.60;99.90;;;;;;5013776;28;20717;-38
2022/05/04 02:49:26;;;;;;;10.87;4.97;;;7.50;99.90;;;;;;5013539;28;20177;-43
2022/05/04 02:51:52;;;;;;;10.33;5.43;;;7.50;99.90;;;;;;5013540;28;20550;-38
2022/05/04 02:54:18;;;;;;;8.93;4.90;;;7.50;99.90;;;;;;5012114;28;20181;-39
2022/05/04 02:56:43;;;;;;;7.57;4.23;;;7.40;99.90;;;;;;5013446;28;20205;-40
2022/05/04 02:59:09;;;;;;;8.70;4.73;;;7.40;99.90;;;;;;5012490;28;20201;-40
2022/05/04 03:04:19;;;;;;;7.67;4.80;;;7.30;99.90;;;;;;5013840;28;20205;-41
2022/05/04 03:06:44;;;;;;;12.47;6.23;;;7.30;99.90;;;;;;5012342;28;20225;-43
2022/05/04 03:09:11;;;;;;;6.00;4.70;;;7.20;99.90;;;;;;5013312;28;20178;-40
2022/05/04 03:11:55;;;;;;;6.87;4.00;;;7.20;99.90;;;;;;5012086;28;20537;-40
2022/05/04 03:14:23;;;;;;;9.73;5.93;;;7.20;99.90;;;;;;5012131;28;20691;-41
2022/05/04 03:16:49;;;;;;;8.73;5.83;;;7.10;99.90;;;;;;5013689;28;20209;-44
2022/05/04 03:19:15;;;;;;;12.47;6.37;;;7.10;99.90;;;;;;5014764;28;20208;-46
2022/05/04 03:21:41;;;;;;;11.37;6.93;;;7.10;99.90;;;;;;5016960;28;20174;-47
2022/05/04 03:24:07;;;;;;;9.17;6.23;;;7.10;99.90;;;;;;5014637;28;20185;-45
2022/05/04 03:26:33;;;;;;;10.10;4.97;;;7.10;99.90;;;;;;5016945;28;20194;-46
2022/05/04 03:28:58;;;;;;;9.83;5.87;;;7.00;99.90;;;;;;5018643;28;20190;-45
2022/05/04 03:31:24;;;;;;;9.63;5.07;;;7.00;99.90;;;;;;5019878;28;20189;-47
2022/05/04 03:33:50;;;;;;;7.97;4.77;;;6.90;99.90;;;;;;5018078;28;20220;-47
2022/05/04 03:36:16;;;;;;;6.33;4.47;;;6.90;99.90;;;;;;5019514;28;20174;-47
2022/05/04 03:38:44;;;;;;;6.80;4.63;;;6.90;99.90;;;;;;5018233;28;20234;-47
2022/05/04 03:41:09;;;;;;;7.80;4.97;;;6.80;99.90;;;;;;5019343;28;20165;-45
2022/05/04 03:43:35;;;;;;;8.87;4.83;;;6.80;99.90;;;;;;5018910;28;20568;-46
2022/05/04 03:46:14;;;;;;;8.40;5.23;;;6.70;99.90;;;;;;5017107;28;20231;-41
2022/05/04 03:48:40;;;;;;;11.90;4.57;;;6.70;99.90;;;;;;5015865;28;20185;-44
2022/05/04 03:51:05;;;;;;;11.23;5.07;;;6.60;99.90;;;;;;5017238;28;20178;-45
2022/05/04 03:53:31;;;;;;;10.10;5.30;;;6.60;99.90;;;;;;5015831;28;20178;-44
2022/05/04 03:55:56;;;;;;;13.13;5.10;;;6.60;99.90;;;;;;5015398;28;20185;-44
2022/05/04 03:58:22;;;;;;;10.07;6.23;;;6.60;99.90;;;;;;5016490;28;20197;-43
2022/05/04 04:00:48;;;;;;;8.47;5.37;;;6.60;99.90;;;;;;5016716;28;20193;-43
2022/05/04 04:03:13;;;;;;;10.80;5.63;;;6.60;99.90;;;;;;5016406;28;20205;-43
2022/05/04 04:05:39;;;;;;;9.63;5.47;;;6.60;99.90;;;;;;5016722;28;20664;-43
2022/05/04 04:08:05;;;;;;;12.07;6.60;;;6.50;99.90;;;;;;5016259;28;20230;-42
2022/05/04 04:10:30;;;;;;;9.53;5.77;;;6.50;99.90;;;;;;5016332;28;20657;-43
2022/05/04 04:12:56;;;;;;;12.77;8.23;;;6.50;99.90;;;;;;5015031;28;20563;-43
2022/05/04 04:15:21;;;;;;;11.30;6.43;;;6.50;99.90;;;;;;5014904;28;20184;-43
2022/05/04 04:17:47;;;;;;;12.67;7.47;;;6.50;99.90;;;;;;5014895;28;20684;-45
2022/05/04 04:22:57;;;;;;;11.17;7.10;;;6.40;99.90;;;;;;5016671;28;20652;-44
2022/05/04 04:25:23;;;;;;;9.83;5.77;;;6.50;99.90;;;;;;5016276;28;20177;-44
2022/05/04 04:27:48;;;;;;;8.40;5.37;;;6.40;99.90;;;;;;5016268;28;20223;-44
2022/05/04 04:30:14;;;;;;;8.50;5.43;;;6.40;99.90;;;;;;5016291;28;20195;-44
2022/05/04 04:32:40;;;;;;;10.40;6.60;;;6.40;99.90;;;;;;5016208;28;20191;-43
2022/05/04 04:35:06;;;;;;;13.40;5.93;;;6.40;99.90;;;;;;5014653;28;20208;-44
2022/05/04 04:37:31;;;;;;;7.53;5.90;;;6.40;99.90;;;;;;5015914;28;20204;-42
2022/05/04 04:39:57;;;;;;;7.93;5.27;;;6.40;99.90;;;;;;5015207;28;20201;-44
2022/05/04 04:42:23;;;;;;;13.53;5.27;;;6.50;99.90;;;;;;5015832;28;20177;-44
2022/05/04 04:44:49;;;;;;;8.47;5.10;;;6.50;99.90;;;;;;5015973;28;20188;-41
2022/05/04 04:47:14;;;;;;;10.47;4.97;;;6.50;99.90;;;;;;5015684;28;20194;-42
2022/05/04 04:49:40;;;;;;;9.70;4.70;;;6.50;99.90;;;;;;5015648;28;20259;-44
2022/05/04 04:52:06;;;;;;;9.23;4.80;;;6.50;99.90;;;;;;5015811;28;20186;-40
2022/05/04 04:54:31;;;;;;;9.43;4.97;;;6.40;99.90;;;;;;5015918;28;20189;-44
2022/05/04 04:56:57;;;;;;;10.57;5.10;;;6.50;99.90;;;;;;5014216;28;20692;-44
2022/05/04 04:59:22;;;;;;;9.30;5.73;;;6.50;99.90;;;;;;5015479;28;20209;-43
2022/05/04 05:01:48;;;;;;;11.10;5.13;;;6.50;99.90;;;;;;5015550;28;20211;-42
2022/05/04 05:04:14;;;;;;;11.90;5.17;;;6.50;99.90;;;;;;5015678;28;20208;-43
2022/05/04 05:06:39;;;;;;;13.23;5.53;;;6.50;99.90;;;;;;5013974;28;20236;-43
2022/05/04 05:09:05;;;;;;;13.73;5.67;;;6.50;99.90;;;;;;5014045;28;20287;-44
2022/05/04 05:11:30;;;;;;;13.83;6.00;;;6.50;99.90;;;;;;5015168;28;20191;-44
2022/05/04 05:16:40;;;;;;;8.77;4.80;;;6.60;99.90;;;;;;5015398;28;20207;-43
2022/05/04 05:19:05;;;;;;;13.30;5.87;;;6.70;99.90;;;;;;5015238;28;20208;-42
2022/05/04 05:21:31;;;;;;;9.27;5.67;;;6.80;99.90;;;;;;5015385;28;20231;-43
2022/05/04 05:23:57;;;;;;;12.07;5.63;;;6.80;99.90;;;;;;5015179;28;20652;-43
2022/05/04 05:26:22;;;;;;;11.57;6.00;;;6.90;99.90;;;;;;5014978;28;20691;-43
2022/05/04 05:28:48;;;;;;;12.27;5.67;;;6.90;99.90;;;;;;5014916;28;20192;-42
2022/05/04 05:31:13;;;;;;;12.03;6.00;;;7.00;99.90;;;;;;5014926;28;20179;-43
2022/05/04 05:33:39;;;;;;;9.30;5.50;;;7.00;99.90;;;;;;5014775;28;20184;-45
2022/05/04 05:36:05;;;;;;;12.87;5.60;;;7.10;99.90;;;;;;5015167;28;20195;-43
2022/05/04 05:38:31;;;;;;;7.70;5.37;;;7.10;99.90;;;;;;5014646;28;20200;-44
2022/05/04 05:40:57;;;;;;;15.47;6.20;;;7.10;99.90;;;;;;5014997;28;20216;-45
2022/05/04 05:43:23;;;;;;;16.33;5.60;;;7.20;99.90;;;;;;5014855;28;20189;-46
2022/05/04 05:45:48;;;;;;;11.10;5.57;;;7.30;99.90;;;;;;5013597;28;20190;-46
2022/05/04 05:48:14;;;;;;;15.13;6.27;;;7.40;99.90;;;;;;5015237;28;20279;-46
2022/05/04 05:50:40;;;;;;;14.63;5.90;;;7.50;99.90;;;;;;5015044;28;20188;-46
2022/05/04 05:53:06;;;;;;;13.47;6.37;;;7.70;99.90;;;;;;5013768;28;20212;-45
2022/05/04 05:55:31;;;;;;;16.17;6.00;;;7.90;99.90;;;;;;5013581;28;20287;-46
2022/05/04 05:57:59;;;;;;;14.53;6.57;;;8.00;99.90;;;;;;5015378;28;20215;-46
2022/05/04 06:00:24;;;;;;;13.27;6.40;;;8.10;99.90;;;;;;5013753;28;20212;-46
2022/05/04 06:02:50;;;;;;;15.83;6.20;;;8.10;99.90;;;;;;5016913;28;20181;-46
2022/05/04 06:05:15;;;;;;;12.57;6.20;;;8.20;99.90;;;;;;5015159;28;20191;-38
2022/05/04 06:07:41;;;;;;;11.83;6.13;;;8.20;99.90;;;;;;5014204;28;20204;-39
2022/05/04 06:10:08;;;;;;;11.63;5.43;;;8.20;99.90;;;;;;5014267;28;20181;-41
2022/05/04 06:12:33;;;;;;;15.03;5.63;;;8.20;99.90;;;;;;5014365;28;20240;-39
2022/05/04 06:14:59;;;;;;;10.53;5.40;;;8.30;99.90;;;;;;5014324;28;20181;-38
2022/05/04 06:17:25;;;;;;;12.67;5.70;;;8.40;99.90;;;;;;5013964;28;20224;-39
2022/05/04 06:19:50;;;;;;;14.37;5.33;;;8.50;99.90;;;;;;5014669;28;20209;-38
2022/05/04 06:22:16;;;;;;;13.83;5.93;;;8.60;99.90;;;;;;5014092;28;20253;-40
2022/05/04 06:24:42;;;;;;;12.00;5.40;;;8.60;99.90;;;;;;5014561;28;20181;-44
2022/05/04 06:27:08;;;;;;;19.90;6.57;;;8.70;99.90;;;;;;5013431;28;20204;-43
2022/05/04 06:35:06;;;;;;;13.20;6.43;;;9.10;99.90;;;;;;5014886;28;20296;-39
2022/05/04 06:37:32;;;;;;;17.33;6.23;;;9.20;99.90;;;;;;5015009;28;20201;-46
2022/05/04 06:39:57;;;;;;;11.63;6.03;;;9.50;99.90;;;;;;5016883;28;20209;-39
2022/05/04 06:42:26;;;;;;;12.77;5.80;;;9.70;99.90;;;;;;5020589;28;20177;-39
2022/05/04 06:44:52;;;;;;;12.40;5.63;;;9.80;99.90;;;;;;5026124;28;20184;-41
2022/05/04 06:47:17;;;;;;;12.57;5.77;;;9.90;99.90;;;;;;5016612;28;20240;-41
2022/05/04 06:49:43;;;;;;;15.70;6.30;;;10.10;99.90;;;;;;5012540;28;20182;-40
2022/05/04 06:52:09;;;;;;;13.87;5.90;;;10.20;99.90;;;;;;5012491;28;20185;-37
2022/05/04 06:54:35;;;;;;;12.97;5.77;;;10.40;99.90;;;;;;5013153;28;20182;-37
2022/05/04 06:57:01;;;;;;;13.80;6.20;;;10.60;99.90;;;;;;5012426;28;20545;-40
2022/05/04 06:59:27;;;;;;;11.33;6.43;;;10.70;99.90;;;;;;5013549;28;20224;-40
2022/05/04 07:01:53;;;;;;;14.13;6.50;;;10.90;99.90;;;;;;5015207;28;20170;-42
2022/05/04 07:04:18;;;;;;;13.67;5.97;;;10.90;99.90;;;;;;5018010;28;20237;-43
2022/05/04 07:06:44;;;;;;;17.03;6.50;;;11.00;99.90;;;;;;5018151;28;20202;-44
2022/05/04 07:09:09;;;;;;;12.37;6.03;;;11.00;99.90;;;;;;5019131;28;20646;-43
2022/05/04 07:11:36;;;;;;;11.97;7.00;;;11.10;99.90;;;;;;5018240;28;20182;-44
2022/05/04 07:14:01;;;;;;;10.97;5.53;;;11.20;99.90;;;;;;5019467;28;20215;-42
2022/05/04 07:16:27;;;;;;;12.43;6.90;;;11.30;99.90;;;;;;5019502;28;20246;-44
2022/05/04 07:19:02;;;;;;;15.27;7.13;;;11.30;99.90;;;;;;5020154;28;20192;-44
2022/05/04 07:21:28;;;;;;;11.80;6.60;;;11.40;99.90;;;;;;5018579;28;20185;-45
2022/05/04 07:23:54;;;;;;;9.80;6.57;;;11.30;99.90;;;;;;5017411;28;20188;-42
2022/05/04 07:26:20;;;;;;;17.23;6.80;;;11.40;99.90;;;;;;5016269;28;20174;-42
2022/05/04 07:28:47;;;;;;;9.27;6.40;;;11.40;99.90;;;;;;5017106;28;20218;-44
2022/05/04 07:31:12;;;;;;;11.93;7.07;;;11.50;99.90;;;;;;5016070;28;20249;-44
2022/05/04 07:33:38;;;;;;;13.57;6.30;;;11.50;99.90;;;;;;5017281;28;20186;-44
2022/05/04 07:36:03;;;;;;;14.17;7.10;;;11.60;99.90;;;;;;5017409;28;20209;-45
2022/05/04 07:38:29;;;;;;;14.43;6.57;;;11.60;99.90;;;;;;5017056;28;20194;-45
2022/05/04 07:43:39;;;;;;;10.83;6.83;;;11.60;99.90;;;;;;5017423;28;20669;-46
2022/05/04 07:46:05;;;;;;;13.73;7.33;;;11.60;99.90;;;;;;5017201;28;20186;-45
2022/05/04 07:48:31;;;;;;;15.70;6.83;;;11.60;99.90;;;;;;5017142;28;20285;-45
2022/05/04 07:50:57;;;;;;;15.70;7.23;;;11.70;99.90;;;;;;5017557;28;20206;-43
2022/05/04 07:53:22;;;;;;;16.63;7.43;;;11.60;99.90;;;;;;5016988;28;20269;-45
2022/05/04 07:55:48;;;;;;;11.87;7.00;;;11.70;99.90;;;;;;5016945;28;20232;-44
2022/05/04 07:58:13;;;;;;;13.17;7.30;;;11.60;99.90;;;;;;5016812;28;20201;-44
2022/05/04 08:06:07;;;;;;;17.23;8.50;;;11.90;99.90;;;;;;5017496;28;20250;-44
2022/05/04 08:08:33;;;;;;;13.17;6.90;;;11.90;99.90;;;;;;5015822;28;20197;-45
2022/05/04 08:10:58;;;;;;;13.93;8.17;;;12.00;99.90;;;;;;5016489;28;20552;-46
2022/05/04 08:13:24;;;;;;;14.50;7.80;;;12.10;99.90;;;;;;5017374;28;20174;-46
2022/05/04 08:15:50;;;;;;;19.27;7.03;;;12.20;99.90;;;;;;5016970;28;20208;-47
2022/05/04 08:18:31;;;;;;;15.73;8.33;;;12.30;99.90;;;;;;5016758;28;20224;-46
2022/05/04 08:20:57;;;;;;;13.50;7.60;;;12.30;99.90;;;;;;5016939;28;20243;-46
2022/05/04 08:23:23;;;;;;;16.50;8.20;;;12.40;99.90;;;;;;5016630;28;20181;-47
2022/05/04 08:25:50;;;;;;;13.07;7.50;;;12.60;99.90;;;;;;5016484;28;20638;-46
2022/05/04 08:28:17;;;;;;;11.80;7.40;;;12.80;99.90;;;;;;5016516;28;20239;-47
2022/05/04 08:30:43;;;;;;;15.10;7.93;;;13.00;99.90;;;;;;5017293;28;20680;-47
2022/05/04 08:33:09;;;;;;;16.83;8.37;;;13.30;99.90;;;;;;5017338;28;20178;-46
2022/05/04 08:35:35;;;;;;;14.53;8.17;;;13.50;99.90;;;;;;5016281;28;20377;-45
2022/05/04 08:38:00;;;;;;;15.20;7.90;;;13.60;99.90;;;;;;5017193;28;20578;-40
2022/05/04 08:40:26;;;;;;;12.30;7.20;;;13.70;99.90;;;;;;5015923;28;20214;-43
2022/05/04 08:42:53;;;;;;;10.13;7.23;;;13.80;99.90;;;;;;5017126;28;20178;-41
2022/05/04 08:45:20;;;;;;;12.97;6.97;;;13.80;99.90;;;;;;5017865;28;20637;-41
2022/05/04 08:47:45;;;;;;;13.20;6.97;;;14.00;99.90;;;;;;5016764;28;20201;-45
2022/05/04 08:50:18;;;;;;;14.43;7.33;;;14.00;99.90;;;;;;5014474;28;20189;-46
2022/05/04 08:52:54;;;;;;;13.80;6.90;;;14.10;99.90;;;;;;5017529;28;20217;-46
2022/05/04 08:55:24;;;;;;;16.50;7.57;;;14.10;99.90;;;;;;5017722;28;20177;-45
2022/05/04 08:57:50;;;;;;;14.03;7.77;;;14.10;99.90;;;;;;5018675;28;20224;-46
2022/05/04 09:00:17;;;;;;;9.73;6.63;;;14.10;99.90;;;;;;5017129;28;20205;-47
2022/05/04 09:02:43;;;;;;;11.90;6.73;;;14.10;99.90;;;;;;5017491;28;20667;-42
2022/05/04 09:05:32;;;;;;;15.23;7.73;;;14.00;99.90;;;;;;5014209;28;20300;-44
2022/05/04 09:07:58;;;;;;;14.20;7.30;;;13.90;99.90;;;;;;5017098;28;20193;-44
2022/05/04 09:10:34;;;;;;;18.83;7.23;;;14.00;99.90;;;;;;5017575;28;20186;-42
2022/05/04 09:13:02;;;;;;;14.80;7.40;;;14.20;99.90;;;;;;5016246;28;20161;-42
2022/05/04 09:15:52;;;;;;;17.27;7.70;;;14.40;99.90;;;;;;5016621;28;20269;-41
2022/05/04 09:18:19;;;;;;;14.00;8.00;;;14.50;99.90;;;;;;5016408;28;20288;-42
2022/05/04 09:20:48;;;;;;;11.10;7.07;;;14.50;99.90;;;;;;5016059;28;20208;-46
2022/05/04 09:23:24;;;;;;;14.37;8.20;;;14.40;99.90;;;;;;5014321;28;20642;-44
2022/05/04 09:25:57;;;;;;;10.67;7.20;;;14.50;99.90;;;;;;5015483;28;20637;-46
2022/05/04 09:28:24;;;;;;;11.77;7.70;;;14.60;99.90;;;;;;5016201;28;20240;-47
2022/05/04 09:30:55;;;;;;;15.63;8.47;;;14.70;99.90;;;;;;5016972;28;20189;-47
2022/05/04 09:33:26;;;;;;;13.43;8.50;;;14.80;99.90;;;;;;5015565;28;20168;-45
2022/05/04 09:35:53;;;;;;;13.30;7.40;;;15.00;99.90;;;;;;5018764;28;20173;-46
2022/05/04 09:46:50;;;;;;;15.30;8.83;;;15.30;99.90;;;;;;5016457;28;20565;-45
2022/05/04 09:49:17;;;;;;;11.73;8.03;;;15.20;99.90;;;;;;5015158;28;20598;-48
2022/05/04 09:51:50;;;;;;;13.37;8.07;;;15.20;99.90;;;;;;5016492;28;20174;-46
2022/05/04 09:54:28;;;;;;;11.23;7.73;;;15.30;99.90;;;;;;5015374;28;20178;-47
2022/05/04 09:56:57;;;;;;;14.77;8.67;;;15.30;99.90;;;;;;5015584;28;20205;-46
2022/05/04 09:59:29;;;;;;;16.47;7.60;;;15.40;99.90;;;;;;5014789;28;20254;-41
2022/05/04 10:01:55;;;;;;;11.80;8.00;;;15.50;99.90;;;;;;5014794;28;20150;-40
2022/05/04 10:04:25;;;;;;;13.40;8.67;;;15.60;99.90;;;;;;5013318;28;20583;-42
2022/05/04 10:06:51;;;;;;;12.30;7.63;;;15.70;99.90;;;;;;5015400;28;20231;-40
2022/05/04 10:09:17;;;;;;;20.10;8.87;;;15.80;99.90;;;;;;5013314;28;20653;-40
2022/05/04 10:11:43;;;;;;;13.60;8.23;;;15.90;99.90;;;;;;5013095;28;20204;-40
2022/05/04 10:14:13;;;;;;;17.00;8.73;;;16.10;99.90;;;;;;5014568;28;20185;-41
2022/05/04 10:16:41;;;;;;;14.90;7.87;;;16.30;99.90;;;;;;5013035;28;20212;-40
2022/05/04 10:19:16;;;;;;;16.83;8.13;;;16.50;99.90;;;;;;5014425;28;20205;-43
2022/05/04 10:21:43;;;;;;;12.10;7.73;;;16.70;99.90;;;;;;5014466;28;20165;-43
2022/05/04 10:24:10;;;;;;;11.27;7.57;;;16.70;99.90;;;;;;5014113;28;20642;-40
2022/05/04 10:26:37;;;;;;;11.13;8.23;;;16.80;99.90;;;;;;5014093;28;20236;-41
2022/05/04 10:32:38;;;;;;;11.97;8.30;;;17.00;99.90;;;;;;5014621;28;20165;-46
2022/05/04 10:35:21;;;;;;;15.83;8.07;;;17.20;99.90;;;;;;5012746;28;20193;-41
2022/05/04 10:37:53;;;;;;;13.33;8.33;;;17.00;99.90;;;;;;5013315;28;20201;-42
2022/05/04 10:40:31;;;;;;;12.70;8.17;;;16.90;99.90;;;;;;5014087;28;20209;-43
2022/05/04 10:42:57;;;;;;;14.53;8.30;;;16.80;99.90;;;;;;5014155;28;20181;-40
2022/05/04 10:45:37;;;;;;;10.07;7.03;;;16.80;99.90;;;;;;5014287;28;20181;-43
2022/05/04 10:48:22;;;;;;;12.83;7.93;;;16.60;99.90;;;;;;5012412;28;20201;-44
2022/05/04 10:50:48;;;;;;;12.53;7.63;;;16.40;99.90;;;;;;5012447;28;20669;-45
2022/05/04 10:53:25;;;;;;;16.53;8.40;;;16.50;99.90;;;;;;5012436;28;20177;-41
2022/05/04 10:56:03;;;;;;;13.03;7.23;;;16.70;99.90;;;;;;5013766;28;20660;-42
2022/05/04 10:58:39;;;;;;;10.97;7.60;;;17.10;99.90;;;;;;5013678;28;20204;-42
2022/05/04 11:01:18;;;;;;;16.03;8.83;;;17.30;99.90;;;;;;5013888;28;20198;-42
2022/05/04 11:04:08;;;;;;;10.47;7.40;;;17.40;99.90;;;;;;5014059;28;20569;-41
2022/05/04 11:06:34;;;;;;;13.60;8.10;;;17.30;99.90;;;;;;5013956;28;20194;-43
2022/05/04 11:09:06;;;;;;;12.03;7.50;;;17.20;99.90;;;;;;5012246;28;20276;-44
2022/05/04 11:11:33;;;;;;;14.77;7.53;;;17.30;99.90;;;;;;5012453;28;20664;-41
2022/05/04 11:13:59;;;;;;;11.93;7.70;;;17.40;99.90;;;;;;5012708;28;20649;-43
2022/05/04 11:16:26;;;;;;;11.87;7.70;;;17.50;99.90;;;;;;5013948;28;20189;-42
2022/05/04 11:18:52;;;;;;;16.50;8.50;;;17.70;99.90;;;;;;5012243;28;20269;-42
2022/05/04 11:21:19;;;;;;;11.30;7.03;;;17.70;99.90;;;;;;5014642;28;20181;-40
2022/05/04 11:23:53;;;;;;;13.63;6.97;;;17.70;99.90;;;;;;5013726;28;20174;-41
2022/05/04 11:26:22;;;;;;;10.43;6.90;;;17.70;99.90;;;;;;5013488;28;20173;-44
2022/05/04 11:28:49;;;;;;;12.00;6.83;;;17.70;99.90;;;;;;5013679;28;20178;-41
2022/05/04 11:31:15;;;;;;;15.23;7.10;;;18.00;99.90;;;;;;5013750;28;20177;-40
2022/05/04 11:33:43;;;;;;;11.47;7.13;;;18.20;99.90;;;;;;5012335;28;20182;-44
2022/05/04 11:36:10;;;;;;;12.50;7.10;;;18.20;99.90;;;;;;5012836;28;20228;-41
2022/05/04 11:38:36;;;;;;;9.37;6.80;;;18.20;99.90;;;;;;5012230;28;20205;-43
2022/05/04 11:41:02;;;;;;;11.23;7.37;;;18.30;99.90;;;;;;5012759;28;20198;-41
2022/05/04 11:43:34;;;;;;;8.33;6.53;;;18.40;99.90;;;;;;5012598;28;20188;-40
2022/05/04 11:46:04;;;;;;;10.40;7.00;;;18.40;99.90;;;;;;5014126;28;20165;-40
2022/05/04 11:48:30;;;;;;;11.50;7.50;;;18.50;99.90;;;;;;5015890;28;20190;-42
2022/05/04 11:50:56;;;;;;;12.17;7.50;;;18.60;99.90;;;;;;5016567;28;20188;-41
2022/05/04 11:53:21;;;;;;;9.50;6.87;;;18.50;99.90;;;;;;5017594;28;20549;-43
2022/05/04 11:55:47;;;;;;;8.80;6.30;;;18.50;99.90;;;;;;5015591;28;20193;-44
2022/05/04 11:58:14;;;;;;;9.30;5.73;;;18.50;99.90;;;;;;5016966;28;20198;-42
2022/05/04 12:00:41;;;;;;;7.87;5.90;;;18.70;99.90;;;;;;5015432;28;20232;-43
2022/05/04 12:03:08;;;;;;;12.30;5.97;;;19.00;99.90;;;;;;5016800;28;20181;-44
2022/05/04 12:05:35;;;;;;;9.73;6.43;;;19.40;99.90;;;;;;5016909;28;20232;-43
2022/05/04 12:08:02;;;;;;;8.50;5.33;;;19.70;99.90;;;;;;5016589;28;20199;-43
2022/05/04 12:10:29;;;;;;;6.00;4.17;;;19.90;99.90;;;;;;5016795;28;20277;-42
2022/05/04 12:12:55;;;;;;;6.90;4.23;;;20.10;99.90;;;;;;5016492;28;20246;-42
2022/05/04 12:15:27;;;;;;;9.23;4.17;;;20.30;99.90;;;;;;5016512;28;20564;-41
2022/05/04 12:18:06;;;;;;;9.83;4.17;;;20.40;99.90;;;;;;5015154;28;20201;-42
2022/05/04 12:20:34;;;;;;;8.00;4.83;;;20.40;99.90;;;;;;5016244;28;20233;-44
2022/05/04 12:23:01;;;;;;;4.57;3.63;;;20.50;99.90;;;;;;5015053;28;20174;-43
2022/05/04 12:25:27;;;;;;;11.87;4.40;;;20.50;99.90;;;;;;5014908;28;20192;-40
2022/05/04 12:27:54;;;;;;;9.33;4.40;;;20.70;99.90;;;;;;5015955;28;20259;-48
2022/05/04 12:33:09;;;;;;;6.03;4.10;;;21.00;99.90;;;;;;5016659;28;20237;-48
2022/05/04 12:35:42;;;;;;;5.57;4.33;;;21.10;99.90;;;;;;5014568;28;20208;-47
2022/05/04 12:38:09;;;;;;;8.50;5.07;;;21.00;99.90;;;;;;5016225;28;20231;-47
2022/05/04 12:40:35;;;;;;;5.17;4.00;;;20.90;99.90;;;;;;5015760;28;20197;-48
2022/05/04 12:43:04;;;;;;;7.07;4.30;;;20.80;99.90;;;;;;5014656;28;20280;-47
2022/05/04 12:45:30;;;;;;;7.97;4.30;;;20.80;99.90;;;;;;5016809;28;20272;-47
2022/05/04 12:47:57;;;;;;;5.50;4.10;;;20.90;99.90;;;;;;5014482;28;20695;-47
2022/05/04 12:50:25;;;;;;;6.03;4.43;;;20.70;99.90;;;;;;5015961;28;20637;-47
2022/05/04 12:52:51;;;;;;;7.70;4.50;;;20.70;99.90;;;;;;5015975;28;20637;-47
2022/05/04 12:55:17;;;;;;;7.03;4.53;;;20.40;98.60;;;;;;5015982;28;20192;-48
2022/05/04 12:57:43;;;;;;;6.33;3.70;;;20.20;99.90;;;;;;5015816;28;20208;-48
2022/05/04 13:00:13;;;;;;;5.77;3.67;;;20.40;99.90;;;;;;5013230;28;20205;-47
2022/05/04 13:02:45;;;;;;;8.53;4.30;;;20.40;98.10;;;;;;5015443;28;20177;-46
2022/05/04 13:05:11;;;;;;;7.93;4.90;;;20.20;95.50;;;;;;5016136;28;20179;-47
2022/05/04 13:07:36;;;;;;;9.43;4.53;;;19.80;95.30;;;;;;5015759;28;20196;-47
2022/05/04 13:10:03;;;;;;;8.10;5.00;;;19.70;96.90;;;;;;5018013;28;20220;-48
2022/05/04 13:12:29;;;;;;;6.97;4.50;;;19.70;98.80;;;;;;5017543;28;20186;-49
2022/05/04 13:14:55;;;;;;;9.07;4.93;;;19.90;99.90;;;;;;5016064;28;20185;-48
2022/05/04 13:17:21;;;;;;;9.67;5.00;;;20.10;99.90;;;;;;5015554;28;20275;-49
2022/05/04 13:19:47;;;;;;;11.80;5.37;;;20.20;99.90;;;;;;5017019;28;20213;-47
2022/05/04 13:22:13;;;;;;;8.57;5.27;;;20.40;99.90;;;;;;5015907;28;20229;-49
2022/05/04 13:24:39;;;;;;;8.53;4.67;;;20.70;99.90;;;;;;5015992;28;20182;-47